EDHK/KEL METAR and TAF weather

Enter ICAO airport designator
Station Type Date Time Source
EDHK METAR 2019/08/19 17:50 UTC NOAA

EDHK 191750Z 25006KT 9999 FEW012 BKN030 16/13 Q1015


Station Type Date Time Source
EDHK Decoded METAR 2019/08/19 17:50 UTC NOAA

Kiel / Holtenau Civilian, Germany (EDHK) 54-23N 010-10E
Aug 19, 2019 - 01:50 PM EDT / 2019.08.19 1750 UTC
Wind: from the WSW (250 degrees) at 7 MPH (6 KT):0
Visibility: greater than 7 mile(s):0
Sky conditions: mostly cloudy
Temperature: 60 F (16 C)
Dew Point: 55 F (13 C)
Relative Humidity: 82%
Pressure (altimeter): 29.97 in. Hg (1015 hPa)
ob: EDHK 191750Z 25006KT 9999 FEW012 BKN030 16/13 Q1015
cycle: 18

Station Type Date Time Source
EDHK TAF 2013/08/11 06:39 UTC NOAA

TAF EDHK 110633Z 1106/1118 24005KT 9999 SCT030
BECMG 1106/1109 25010KT
TEMPO 1106/1118 27015G25KT 4500 SHRA BKN012CB

Example: see airport list